sensor_id;sensor_type;location;lat;lon;timestamp;P1;durP1;ratioP1;P2;durP2;ratioP2
8861;SDS011;4799;50.996;4.754;2023-07-29T00:01:31;2.57;;;2.20;;
8861;SDS011;4799;50.996;4.754;2023-07-29T00:03:58;2.80;;;2.10;;
8861;SDS011;4799;50.996;4.754;2023-07-29T00:06:24;2.60;;;2.10;;
8861;SDS011;4799;50.996;4.754;2023-07-29T00:08:50;3.30;;;2.13;;
8861;SDS011;4799;50.996;4.754;2023-07-29T00:11:16;2.37;;;2.17;;
8861;SDS011;4799;50.996;4.754;2023-07-29T00:13:41;2.73;;;2.17;;
8861;SDS011;4799;50.996;4.754;2023-07-29T00:16:07;2.30;;;2.00;;
8861;SDS011;4799;50.996;4.754;2023-07-29T00:18:33;2.40;;;2.20;;
8861;SDS011;4799;50.996;4.754;2023-07-29T00:20:59;2.40;;;2.20;;
8861;SDS011;4799;50.996;4.754;2023-07-29T00:23:24;2.60;;;2.20;;
8861;SDS011;4799;50.996;4.754;2023-07-29T00:25:50;2.50;;;2.30;;
8861;SDS011;4799;50.996;4.754;2023-07-29T00:28:16;2.50;;;2.30;;
8861;SDS011;4799;50.996;4.754;2023-07-29T00:30:41;2.60;;;2.40;;
8861;SDS011;4799;50.996;4.754;2023-07-29T00:33:07;3.93;;;2.37;;
8861;SDS011;4799;50.996;4.754;2023-07-29T00:35:34;3.27;;;2.60;;
8861;SDS011;4799;50.996;4.754;2023-07-29T00:38:00;2.90;;;2.60;;
8861;SDS011;4799;50.996;4.754;2023-07-29T00:40:25;4.77;;;2.30;;
8861;SDS011;4799;50.996;4.754;2023-07-29T00:42:53;3.57;;;2.40;;
8861;SDS011;4799;50.996;4.754;2023-07-29T00:45:19;2.50;;;2.30;;
8861;SDS011;4799;50.996;4.754;2023-07-29T00:47:45;2.33;;;2.10;;
8861;SDS011;4799;50.996;4.754;2023-07-29T00:50:12;2.47;;;1.80;;
8861;SDS011;4799;50.996;4.754;2023-07-29T00:52:39;2.20;;;1.90;;
8861;SDS011;4799;50.996;4.754;2023-07-29T00:55:06;2.97;;;2.00;;
8861;SDS011;4799;50.996;4.754;2023-07-29T00:57:32;2.77;;;2.00;;
8861;SDS011;4799;50.996;4.754;2023-07-29T00:59:58;1.93;;;1.70;;
8861;SDS011;4799;50.996;4.754;2023-07-29T01:02:25;2.60;;;1.90;;
8861;SDS011;4799;50.996;4.754;2023-07-29T01:04:55;3.47;;;1.90;;
8861;SDS011;4799;50.996;4.754;2023-07-29T01:07:24;2.53;;;1.90;;
8861;SDS011;4799;50.996;4.754;2023-07-29T01:13:22;2.80;;;2.10;;
8861;SDS011;4799;50.996;4.754;2023-07-29T01:16:30;2.67;;;1.83;;
8861;SDS011;4799;50.996;4.754;2023-07-29T01:18:50;3.33;;;1.97;;
8861;SDS011;4799;50.996;4.754;2023-07-29T01:21:20;2.10;;;1.87;;
8861;SDS011;4799;50.996;4.754;2023-07-29T01:23:47;1.93;;;1.70;;
8861;SDS011;4799;50.996;4.754;2023-07-29T01:26:12;2.90;;;1.67;;
8861;SDS011;4799;50.996;4.754;2023-07-29T01:28:38;1.97;;;1.73;;
8861;SDS011;4799;50.996;4.754;2023-07-29T01:31:20;2.53;;;1.90;;
8861;SDS011;4799;50.996;4.754;2023-07-29T01:34:05;2.20;;;1.87;;
8861;SDS011;4799;50.996;4.754;2023-07-29T01:36:36;4.00;;;1.73;;
8861;SDS011;4799;50.996;4.754;2023-07-29T01:39:05;2.30;;;1.70;;
8861;SDS011;4799;50.996;4.754;2023-07-29T01:41:32;3.70;;;1.70;;
8861;SDS011;4799;50.996;4.754;2023-07-29T01:43:59;2.50;;;1.70;;
8861;SDS011;4799;50.996;4.754;2023-07-29T01:46:25;2.43;;;1.80;;
8861;SDS011;4799;50.996;4.754;2023-07-29T01:48:50;2.60;;;1.80;;
8861;SDS011;4799;50.996;4.754;2023-07-29T01:51:16;2.03;;;1.50;;
8861;SDS011;4799;50.996;4.754;2023-07-29T01:53:42;2.00;;;1.80;;
8861;SDS011;4799;50.996;4.754;2023-07-29T01:56:08;2.53;;;1.77;;
8861;SDS011;4799;50.996;4.754;2023-07-29T01:58:33;2.27;;;1.70;;
8861;SDS011;4799;50.996;4.754;2023-07-29T02:00:59;3.60;;;1.77;;
8861;SDS011;4799;50.996;4.754;2023-07-29T02:03:25;2.33;;;1.97;;
8861;SDS011;4799;50.996;4.754;2023-07-29T02:05:50;2.90;;;1.77;;
8861;SDS011;4799;50.996;4.754;2023-07-29T02:08:16;2.13;;;1.70;;
8861;SDS011;4799;50.996;4.754;2023-07-29T02:10:42;2.53;;;1.80;;
8861;SDS011;4799;50.996;4.754;2023-07-29T02:13:10;2.43;;;1.50;;
8861;SDS011;4799;50.996;4.754;2023-07-29T02:15:36;2.10;;;1.90;;
8861;SDS011;4799;50.996;4.754;2023-07-29T02:18:02;2.27;;;1.80;;
8861;SDS011;4799;50.996;4.754;2023-07-29T02:20:28;2.33;;;1.70;;
8861;SDS011;4799;50.996;4.754;2023-07-29T02:22:54;2.97;;;2.00;;
8861;SDS011;4799;50.996;4.754;2023-07-29T02:25:20;4.23;;;1.90;;
8861;SDS011;4799;50.996;4.754;2023-07-29T02:27:45;3.20;;;1.70;;
8861;SDS011;4799;50.996;4.754;2023-07-29T02:30:11;2.87;;;1.77;;
8861;SDS011;4799;50.996;4.754;2023-07-29T02:32:37;3.53;;;1.77;;
8861;SDS011;4799;50.996;4.754;2023-07-29T02:35:03;4.13;;;1.87;;
8861;SDS011;4799;50.996;4.754;2023-07-29T02:37:30;2.87;;;1.90;;
8861;SDS011;4799;50.996;4.754;2023-07-29T02:39:55;1.93;;;1.70;;
8861;SDS011;4799;50.996;4.754;2023-07-29T02:42:21;3.33;;;1.80;;
8861;SDS011;4799;50.996;4.754;2023-07-29T02:44:47;2.73;;;2.10;;
8861;SDS011;4799;50.996;4.754;2023-07-29T02:47:12;2.77;;;1.90;;
8861;SDS011;4799;50.996;4.754;2023-07-29T02:49:38;3.07;;;1.77;;
8861;SDS011;4799;50.996;4.754;2023-07-29T02:52:04;2.90;;;1.80;;
8861;SDS011;4799;50.996;4.754;2023-07-29T02:54:30;3.40;;;2.03;;
8861;SDS011;4799;50.996;4.754;2023-07-29T02:56:55;2.00;;;1.80;;
8861;SDS011;4799;50.996;4.754;2023-07-29T02:59:21;2.80;;;1.70;;
8861;SDS011;4799;50.996;4.754;2023-07-29T03:01:47;2.10;;;1.90;;
8861;SDS011;4799;50.996;4.754;2023-07-29T03:04:13;3.23;;;2.10;;
8861;SDS011;4799;50.996;4.754;2023-07-29T03:06:38;2.50;;;1.90;;
8861;SDS011;4799;50.996;4.754;2023-07-29T03:09:04;2.67;;;1.93;;
8861;SDS011;4799;50.996;4.754;2023-07-29T03:11:30;2.47;;;2.03;;
8861;SDS011;4799;50.996;4.754;2023-07-29T03:13:56;2.73;;;1.90;;
8861;SDS011;4799;50.996;4.754;2023-07-29T03:16:22;2.93;;;1.90;;
8861;SDS011;4799;50.996;4.754;2023-07-29T03:18:49;2.60;;;2.00;;
8861;SDS011;4799;50.996;4.754;2023-07-29T03:21:15;2.60;;;2.00;;
8861;SDS011;4799;50.996;4.754;2023-07-29T03:23:40;2.63;;;2.03;;
8861;SDS011;4799;50.996;4.754;2023-07-29T03:26:06;3.37;;;2.10;;
8861;SDS011;4799;50.996;4.754;2023-07-29T03:28:35;2.37;;;1.90;;
8861;SDS011;4799;50.996;4.754;2023-07-29T03:31:06;2.83;;;1.90;;
8861;SDS011;4799;50.996;4.754;2023-07-29T03:33:32;2.77;;;2.00;;
8861;SDS011;4799;50.996;4.754;2023-07-29T03:35:58;2.40;;;2.10;;
8861;SDS011;4799;50.996;4.754;2023-07-29T03:38:24;2.13;;;1.93;;
8861;SDS011;4799;50.996;4.754;2023-07-29T03:40:50;2.20;;;2.00;;
8861;SDS011;4799;50.996;4.754;2023-07-29T03:43:15;2.77;;;2.27;;
8861;SDS011;4799;50.996;4.754;2023-07-29T03:45:41;2.53;;;2.10;;
8861;SDS011;4799;50.996;4.754;2023-07-29T03:48:07;2.20;;;2.00;;
8861;SDS011;4799;50.996;4.754;2023-07-29T03:50:33;2.20;;;2.00;;
8861;SDS011;4799;50.996;4.754;2023-07-29T03:53:03;2.27;;;2.07;;
8861;SDS011;4799;50.996;4.754;2023-07-29T03:55:29;3.07;;;2.27;;
8861;SDS011;4799;50.996;4.754;2023-07-29T03:57:56;2.77;;;2.30;;
8861;SDS011;4799;50.996;4.754;2023-07-29T04:00:22;4.00;;;2.13;;
8861;SDS011;4799;50.996;4.754;2023-07-29T04:02:48;3.73;;;2.20;;
8861;SDS011;4799;50.996;4.754;2023-07-29T04:05:14;3.47;;;2.40;;
8861;SDS011;4799;50.996;4.754;2023-07-29T04:07:40;3.67;;;2.33;;
8861;SDS011;4799;50.996;4.754;2023-07-29T04:10:06;2.63;;;2.17;;
8861;SDS011;4799;50.996;4.754;2023-07-29T04:12:32;3.20;;;2.30;;
8861;SDS011;4799;50.996;4.754;2023-07-29T04:14:58;3.20;;;2.00;;
8861;SDS011;4799;50.996;4.754;2023-07-29T04:17:24;2.43;;;2.00;;
8861;SDS011;4799;50.996;4.754;2023-07-29T04:19:50;2.30;;;2.10;;
8861;SDS011;4799;50.996;4.754;2023-07-29T04:22:15;3.43;;;2.00;;
8861;SDS011;4799;50.996;4.754;2023-07-29T04:24:41;2.30;;;2.10;;
8861;SDS011;4799;50.996;4.754;2023-07-29T04:27:07;3.57;;;2.20;;
8861;SDS011;4799;50.996;4.754;2023-07-29T04:29:33;3.23;;;2.03;;
8861;SDS011;4799;50.996;4.754;2023-07-29T04:32:01;3.03;;;2.03;;
8861;SDS011;4799;50.996;4.754;2023-07-29T04:34:27;3.07;;;2.20;;
8861;SDS011;4799;50.996;4.754;2023-07-29T04:36:53;3.03;;;2.00;;
8861;SDS011;4799;50.996;4.754;2023-07-29T04:39:19;2.33;;;2.13;;
8861;SDS011;4799;50.996;4.754;2023-07-29T04:41:45;2.40;;;2.20;;
8861;SDS011;4799;50.996;4.754;2023-07-29T04:44:11;2.97;;;2.30;;
8861;SDS011;4799;50.996;4.754;2023-07-29T04:46:36;3.13;;;2.30;;
8861;SDS011;4799;50.996;4.754;2023-07-29T04:49:03;2.60;;;2.20;;
8861;SDS011;4799;50.996;4.754;2023-07-29T04:51:29;3.90;;;2.40;;
8861;SDS011;4799;50.996;4.754;2023-07-29T04:53:56;2.40;;;2.20;;
8861;SDS011;4799;50.996;4.754;2023-07-29T04:56:22;4.77;;;2.20;;
8861;SDS011;4799;50.996;4.754;2023-07-29T04:58:48;2.70;;;2.10;;
8861;SDS011;4799;50.996;4.754;2023-07-29T05:01:14;2.40;;;2.10;;
8861;SDS011;4799;50.996;4.754;2023-07-29T05:03:39;3.00;;;2.20;;
8861;SDS011;4799;50.996;4.754;2023-07-29T05:06:05;4.03;;;2.43;;
8861;SDS011;4799;50.996;4.754;2023-07-29T05:08:31;2.30;;;2.00;;
8861;SDS011;4799;50.996;4.754;2023-07-29T05:10:57;2.90;;;2.20;;
8861;SDS011;4799;50.996;4.754;2023-07-29T05:13:22;3.40;;;2.20;;
8861;SDS011;4799;50.996;4.754;2023-07-29T05:15:48;2.97;;;2.30;;
8861;SDS011;4799;50.996;4.754;2023-07-29T05:18:15;2.40;;;2.20;;
8861;SDS011;4799;50.996;4.754;2023-07-29T05:20:41;3.23;;;2.00;;
8861;SDS011;4799;50.996;4.754;2023-07-29T05:23:07;2.87;;;2.00;;
8861;SDS011;4799;50.996;4.754;2023-07-29T05:25:33;2.53;;;2.20;;
8861;SDS011;4799;50.996;4.754;2023-07-29T05:28:02;2.97;;;2.10;;
8861;SDS011;4799;50.996;4.754;2023-07-29T05:30:28;2.20;;;2.00;;
8861;SDS011;4799;50.996;4.754;2023-07-29T05:33:00;2.37;;;2.17;;
8861;SDS011;4799;50.996;4.754;2023-07-29T05:35:25;3.37;;;2.13;;
8861;SDS011;4799;50.996;4.754;2023-07-29T05:37:52;4.00;;;2.10;;
8861;SDS011;4799;50.996;4.754;2023-07-29T05:40:17;3.10;;;2.13;;
8861;SDS011;4799;50.996;4.754;2023-07-29T05:42:43;2.40;;;2.20;;
8861;SDS011;4799;50.996;4.754;2023-07-29T05:45:10;2.37;;;2.07;;
8861;SDS011;4799;50.996;4.754;2023-07-29T05:47:36;3.00;;;2.00;;
8861;SDS011;4799;50.996;4.754;2023-07-29T05:50:03;2.27;;;2.00;;
8861;SDS011;4799;50.996;4.754;2023-07-29T05:52:30;2.33;;;1.50;;
8861;SDS011;4799;50.996;4.754;2023-07-29T05:54:58;2.57;;;1.80;;
8861;SDS011;4799;50.996;4.754;2023-07-29T05:57:24;2.13;;;1.90;;
8861;SDS011;4799;50.996;4.754;2023-07-29T05:59:50;3.17;;;1.87;;
8861;SDS011;4799;50.996;4.754;2023-07-29T06:02:16;1.93;;;1.73;;
8861;SDS011;4799;50.996;4.754;2023-07-29T06:04:42;2.87;;;1.80;;
8861;SDS011;4799;50.996;4.754;2023-07-29T06:07:07;3.03;;;1.83;;
8861;SDS011;4799;50.996;4.754;2023-07-29T06:09:33;1.90;;;1.70;;
8861;SDS011;4799;50.996;4.754;2023-07-29T06:11:59;2.23;;;1.77;;
8861;SDS011;4799;50.996;4.754;2023-07-29T06:14:25;2.00;;;1.67;;
8861;SDS011;4799;50.996;4.754;2023-07-29T06:16:51;1.60;;;1.50;;
8861;SDS011;4799;50.996;4.754;2023-07-29T06:19:17;1.90;;;1.70;;
8861;SDS011;4799;50.996;4.754;2023-07-29T06:21:45;2.67;;;1.60;;
8861;SDS011;4799;50.996;4.754;2023-07-29T06:24:10;2.47;;;1.50;;
8861;SDS011;4799;50.996;4.754;2023-07-29T06:26:36;2.57;;;1.70;;
8861;SDS011;4799;50.996;4.754;2023-07-29T06:29:02;1.67;;;1.50;;
8861;SDS011;4799;50.996;4.754;2023-07-29T06:31:27;1.57;;;1.47;;
8861;SDS011;4799;50.996;4.754;2023-07-29T06:33:54;2.23;;;1.93;;
8861;SDS011;4799;50.996;4.754;2023-07-29T06:36:20;2.67;;;1.60;;
8861;SDS011;4799;50.996;4.754;2023-07-29T06:38:46;2.80;;;1.60;;
8861;SDS011;4799;50.996;4.754;2023-07-29T06:41:12;1.50;;;1.30;;
8861;SDS011;4799;50.996;4.754;2023-07-29T06:43:38;1.90;;;1.37;;
8861;SDS011;4799;50.996;4.754;2023-07-29T06:46:03;3.37;;;1.67;;
8861;SDS011;4799;50.996;4.754;2023-07-29T06:48:29;3.63;;;1.60;;
8861;SDS011;4799;50.996;4.754;2023-07-29T06:50:55;1.60;;;1.47;;
8861;SDS011;4799;50.996;4.754;2023-07-29T06:53:25;2.63;;;1.57;;
8861;SDS011;4799;50.996;4.754;2023-07-29T06:55:53;1.67;;;1.43;;
8861;SDS011;4799;50.996;4.754;2023-07-29T06:58:19;2.40;;;1.43;;
8861;SDS011;4799;50.996;4.754;2023-07-29T07:00:45;2.43;;;1.67;;
8861;SDS011;4799;50.996;4.754;2023-07-29T07:03:11;4.03;;;1.50;;
8861;SDS011;4799;50.996;4.754;2023-07-29T07:05:36;2.60;;;1.77;;
8861;SDS011;4799;50.996;4.754;2023-07-29T07:08:02;1.67;;;1.50;;
8861;SDS011;4799;50.996;4.754;2023-07-29T07:10:28;1.83;;;1.40;;
8861;SDS011;4799;50.996;4.754;2023-07-29T07:12:54;2.40;;;1.43;;
8861;SDS011;4799;50.996;4.754;2023-07-29T07:15:19;1.50;;;1.40;;
8861;SDS011;4799;50.996;4.754;2023-07-29T07:17:45;1.77;;;1.30;;
8861;SDS011;4799;50.996;4.754;2023-07-29T07:20:11;1.93;;;1.30;;
8861;SDS011;4799;50.996;4.754;2023-07-29T07:22:37;2.10;;;1.50;;
8861;SDS011;4799;50.996;4.754;2023-07-29T07:25:02;1.30;;;1.20;;
8861;SDS011;4799;50.996;4.754;2023-07-29T07:27:28;2.90;;;1.40;;
8861;SDS011;4799;50.996;4.754;2023-07-29T07:29:54;2.13;;;1.43;;
8861;SDS011;4799;50.996;4.754;2023-07-29T07:32:20;1.30;;;1.20;;
8861;SDS011;4799;50.996;4.754;2023-07-29T07:34:45;1.97;;;1.30;;
8861;SDS011;4799;50.996;4.754;2023-07-29T07:37:12;1.37;;;1.27;;
8861;SDS011;4799;50.996;4.754;2023-07-29T07:39:38;1.40;;;1.27;;
8861;SDS011;4799;50.996;4.754;2023-07-29T07:42:04;1.23;;;1.13;;
8861;SDS011;4799;50.996;4.754;2023-07-29T07:44:30;1.70;;;1.23;;
8861;SDS011;4799;50.996;4.754;2023-07-29T07:46:55;2.20;;;1.30;;
8861;SDS011;4799;50.996;4.754;2023-07-29T07:49:21;2.47;;;1.40;;
8861;SDS011;4799;50.996;4.754;2023-07-29T07:51:47;2.60;;;1.20;;
8861;SDS011;4799;50.996;4.754;2023-07-29T07:54:13;1.70;;;1.40;;
8861;SDS011;4799;50.996;4.754;2023-07-29T07:56:39;2.27;;;1.60;;
8861;SDS011;4799;50.996;4.754;2023-07-29T07:59:04;1.90;;;1.20;;
8861;SDS011;4799;50.996;4.754;2023-07-29T08:01:34;1.37;;;1.27;;
8861;SDS011;4799;50.996;4.754;2023-07-29T08:04:00;1.53;;;1.40;;
8861;SDS011;4799;50.996;4.754;2023-07-29T08:06:26;1.83;;;1.30;;
8861;SDS011;4799;50.996;4.754;2023-07-29T08:08:52;1.40;;;1.30;;
8861;SDS011;4799;50.996;4.754;2023-07-29T08:11:17;1.80;;;1.40;;
8861;SDS011;4799;50.996;4.754;2023-07-29T08:13:43;1.60;;;1.50;;
8861;SDS011;4799;50.996;4.754;2023-07-29T08:16:09;1.30;;;1.20;;
8861;SDS011;4799;50.996;4.754;2023-07-29T08:18:35;1.40;;;1.30;;
8861;SDS011;4799;50.996;4.754;2023-07-29T08:21:00;3.10;;;1.20;;
8861;SDS011;4799;50.996;4.754;2023-07-29T08:23:30;1.20;;;1.10;;
8861;SDS011;4799;50.996;4.754;2023-07-29T08:25:58;1.30;;;1.20;;
8861;SDS011;4799;50.996;4.754;2023-07-29T08:28:28;1.43;;;1.33;;
8861;SDS011;4799;50.996;4.754;2023-07-29T08:30:55;2.53;;;1.20;;
8861;SDS011;4799;50.996;4.754;2023-07-29T08:33:21;1.57;;;1.30;;
8861;SDS011;4799;50.996;4.754;2023-07-29T08:35:47;2.17;;;1.03;;
8861;SDS011;4799;50.996;4.754;2023-07-29T08:38:13;2.37;;;1.30;;
8861;SDS011;4799;50.996;4.754;2023-07-29T08:40:42;1.63;;;1.20;;
8861;SDS011;4799;50.996;4.754;2023-07-29T08:43:31;1.70;;;1.40;;
8861;SDS011;4799;50.996;4.754;2023-07-29T08:46:00;2.37;;;1.70;;
8861;SDS011;4799;50.996;4.754;2023-07-29T08:48:36;1.30;;;1.20;;
8861;SDS011;4799;50.996;4.754;2023-07-29T08:51:06;1.67;;;1.50;;
8861;SDS011;4799;50.996;4.754;2023-07-29T08:53:34;1.83;;;1.20;;
8861;SDS011;4799;50.996;4.754;2023-07-29T08:56:01;1.97;;;1.50;;
8861;SDS011;4799;50.996;4.754;2023-07-29T08:58:27;1.30;;;1.10;;
8861;SDS011;4799;50.996;4.754;2023-07-29T09:00:54;2.70;;;1.37;;
8861;SDS011;4799;50.996;4.754;2023-07-29T09:03:20;1.60;;;1.20;;
8861;SDS011;4799;50.996;4.754;2023-07-29T09:05:46;1.47;;;1.20;;
8861;SDS011;4799;50.996;4.754;2023-07-29T09:08:13;1.50;;;1.40;;
8861;SDS011;4799;50.996;4.754;2023-07-29T09:10:39;3.10;;;1.30;;
8861;SDS011;4799;50.996;4.754;2023-07-29T09:13:05;1.83;;;1.20;;
8861;SDS011;4799;50.996;4.754;2023-07-29T09:15:32;2.17;;;1.50;;
8861;SDS011;4799;50.996;4.754;2023-07-29T09:18:08;1.37;;;1.20;;
8861;SDS011;4799;50.996;4.754;2023-07-29T09:20:40;1.67;;;1.20;;
8861;SDS011;4799;50.996;4.754;2023-07-29T09:23:07;2.33;;;1.30;;
8861;SDS011;4799;50.996;4.754;2023-07-29T09:25:35;1.57;;;1.23;;
8861;SDS011;4799;50.996;4.754;2023-07-29T09:28:02;1.30;;;1.20;;
8861;SDS011;4799;50.996;4.754;2023-07-29T09:30:37;1.67;;;1.40;;
8861;SDS011;4799;50.996;4.754;2023-07-29T09:33:03;2.57;;;1.60;;
8861;SDS011;4799;50.996;4.754;2023-07-29T09:35:30;2.17;;;1.60;;
8861;SDS011;4799;50.996;4.754;2023-07-29T09:37:57;1.50;;;1.20;;
8861;SDS011;4799;50.996;4.754;2023-07-29T09:40:23;2.07;;;1.40;;
8861;SDS011;4799;50.996;4.754;2023-07-29T09:42:49;2.67;;;1.50;;
8861;SDS011;4799;50.996;4.754;2023-07-29T09:45:25;2.53;;;1.40;;
8861;SDS011;4799;50.996;4.754;2023-07-29T09:47:56;2.00;;;1.73;;
8861;SDS011;4799;50.996;4.754;2023-07-29T09:50:23;1.60;;;1.50;;
8861;SDS011;4799;50.996;4.754;2023-07-29T09:52:50;2.87;;;1.60;;
8861;SDS011;4799;50.996;4.754;2023-07-29T09:55:17;2.27;;;1.40;;
8861;SDS011;4799;50.996;4.754;2023-07-29T09:57:44;2.00;;;1.80;;
8861;SDS011;4799;50.996;4.754;2023-07-29T10:00:10;2.38;;;1.50;;
8861;SDS011;4799;50.996;4.754;2023-07-29T10:02:41;1.80;;;1.60;;
8861;SDS011;4799;50.996;4.754;2023-07-29T10:05:08;3.28;;;1.50;;
8861;SDS011;4799;50.996;4.754;2023-07-29T10:07:38;2.20;;;1.60;;
8861;SDS011;4799;50.996;4.754;2023-07-29T10:10:05;2.33;;;1.90;;
8861;SDS011;4799;50.996;4.754;2023-07-29T10:12:33;2.63;;;1.73;;
8861;SDS011;4799;50.996;4.754;2023-07-29T10:15:00;1.85;;;1.52;;
8861;SDS011;4799;50.996;4.754;2023-07-29T10:17:31;2.30;;;1.60;;
8861;SDS011;4799;50.996;4.754;2023-07-29T10:20:00;4.40;;;1.87;;
8861;SDS011;4799;50.996;4.754;2023-07-29T10:22:28;2.27;;;1.70;;
8861;SDS011;4799;50.996;4.754;2023-07-29T10:24:59;1.90;;;1.70;;
8861;SDS011;4799;50.996;4.754;2023-07-29T10:27:52;1.92;;;1.83;;
8861;SDS011;4799;50.996;4.754;2023-07-29T10:30:25;1.98;;;1.80;;
8861;SDS011;4799;50.996;4.754;2023-07-29T10:32:53;1.77;;;1.65;;
8861;SDS011;4799;50.996;4.754;2023-07-29T10:35:22;1.75;;;1.65;;
8861;SDS011;4799;50.996;4.754;2023-07-29T10:37:48;4.00;;;1.80;;
8861;SDS011;4799;50.996;4.754;2023-07-29T10:40:16;1.77;;;1.67;;
8861;SDS011;4799;50.996;4.754;2023-07-29T10:43:02;3.03;;;1.77;;
8861;SDS011;4799;50.996;4.754;2023-07-29T10:45:37;2.60;;;1.60;;
8861;SDS011;4799;50.996;4.754;2023-07-29T10:51:42;2.55;;;1.80;;
8861;SDS011;4799;50.996;4.754;2023-07-29T10:54:12;2.08;;;1.88;;
8861;SDS011;4799;50.996;4.754;2023-07-29T10:56:43;2.50;;;1.90;;
8861;SDS011;4799;50.996;4.754;2023-07-29T11:01:38;2.85;;;1.70;;
8861;SDS011;4799;50.996;4.754;2023-07-29T11:07:08;2.55;;;1.55;;
8861;SDS011;4799;50.996;4.754;2023-07-29T11:17:58;2.17;;;1.70;;
8861;SDS011;4799;50.996;4.754;2023-07-29T11:20:27;2.17;;;1.73;;
8861;SDS011;4799;50.996;4.754;2023-07-29T11:22:55;2.77;;;2.10;;
8861;SDS011;4799;50.996;4.754;2023-07-29T11:25:22;4.10;;;1.93;;
8861;SDS011;4799;50.996;4.754;2023-07-29T11:27:50;3.90;;;2.17;;
8861;SDS011;4799;50.996;4.754;2023-07-29T11:30:17;3.87;;;1.80;;
8861;SDS011;4799;50.996;4.754;2023-07-29T11:32:44;2.10;;;1.90;;
8861;SDS011;4799;50.996;4.754;2023-07-29T11:35:12;1.83;;;1.67;;
8861;SDS011;4799;50.996;4.754;2023-07-29T11:37:46;2.20;;;1.77;;
8861;SDS011;4799;50.996;4.754;2023-07-29T11:40:14;2.00;;;1.80;;
8861;SDS011;4799;50.996;4.754;2023-07-29T11:42:40;2.00;;;1.80;;
8861;SDS011;4799;50.996;4.754;2023-07-29T11:45:06;2.27;;;1.90;;
8861;SDS011;4799;50.996;4.754;2023-07-29T11:47:33;3.23;;;1.97;;
8861;SDS011;4799;50.996;4.754;2023-07-29T11:50:09;1.90;;;1.80;;
8861;SDS011;4799;50.996;4.754;2023-07-29T11:52:36;2.70;;;1.93;;
8861;SDS011;4799;50.996;4.754;2023-07-29T11:55:03;2.10;;;1.90;;
8861;SDS011;4799;50.996;4.754;2023-07-29T11:57:29;2.27;;;2.07;;
8861;SDS011;4799;50.996;4.754;2023-07-29T11:59:56;2.97;;;2.20;;
8861;SDS011;4799;50.996;4.754;2023-07-29T12:02:23;1.83;;;1.70;;
8861;SDS011;4799;50.996;4.754;2023-07-29T12:04:50;2.30;;;1.90;;
8861;SDS011;4799;50.996;4.754;2023-07-29T12:07:17;1.97;;;1.87;;
8861;SDS011;4799;50.996;4.754;2023-07-29T12:09:44;2.03;;;1.90;;
8861;SDS011;4799;50.996;4.754;2023-07-29T12:12:10;1.75;;;1.65;;
8861;SDS011;4799;50.996;4.754;2023-07-29T12:14:37;1.70;;;1.60;;
8861;SDS011;4799;50.996;4.754;2023-07-29T12:17:03;1.87;;;1.77;;
8861;SDS011;4799;50.996;4.754;2023-07-29T12:19:37;2.00;;;1.87;;
8861;SDS011;4799;50.996;4.754;2023-07-29T12:22:04;1.90;;;1.80;;
8861;SDS011;4799;50.996;4.754;2023-07-29T12:24:35;2.00;;;1.90;;
8861;SDS011;4799;50.996;4.754;2023-07-29T12:27:03;2.00;;;1.90;;
8861;SDS011;4799;50.996;4.754;2023-07-29T12:29:29;1.70;;;1.60;;
8861;SDS011;4799;50.996;4.754;2023-07-29T12:31:58;1.80;;;1.70;;
8861;SDS011;4799;50.996;4.754;2023-07-29T12:34:26;2.53;;;1.90;;
8861;SDS011;4799;50.996;4.754;2023-07-29T12:36:56;3.27;;;2.10;;
8861;SDS011;4799;50.996;4.754;2023-07-29T12:39:30;2.37;;;2.17;;
8861;SDS011;4799;50.996;4.754;2023-07-29T12:41:58;2.13;;;2.03;;
8861;SDS011;4799;50.996;4.754;2023-07-29T12:44:27;2.60;;;2.40;;
8861;SDS011;4799;50.996;4.754;2023-07-29T12:46:55;4.57;;;2.90;;
8861;SDS011;4799;50.996;4.754;2023-07-29T12:49:21;3.30;;;2.97;;
8861;SDS011;4799;50.996;4.754;2023-07-29T12:51:47;3.17;;;2.87;;
8861;SDS011;4799;50.996;4.754;2023-07-29T12:54:13;2.60;;;2.40;;
8861;SDS011;4799;50.996;4.754;2023-07-29T12:56:39;2.63;;;2.43;;
8861;SDS011;4799;50.996;4.754;2023-07-29T12:59:04;2.67;;;2.40;;
8861;SDS011;4799;50.996;4.754;2023-07-29T13:01:31;2.83;;;2.40;;
8861;SDS011;4799;50.996;4.754;2023-07-29T13:03:56;2.90;;;2.67;;
8861;SDS011;4799;50.996;4.754;2023-07-29T13:06:22;3.20;;;2.90;;
8861;SDS011;4799;50.996;4.754;2023-07-29T13:08:48;2.90;;;2.70;;
8861;SDS011;4799;50.996;4.754;2023-07-29T13:11:14;3.00;;;2.80;;
8861;SDS011;4799;50.996;4.754;2023-07-29T13:13:41;2.87;;;2.50;;
8861;SDS011;4799;50.996;4.754;2023-07-29T13:16:06;2.57;;;2.37;;
8861;SDS011;4799;50.996;4.754;2023-07-29T13:18:32;2.40;;;2.20;;
8861;SDS011;4799;50.996;4.754;2023-07-29T13:20:58;3.57;;;2.30;;
8861;SDS011;4799;50.996;4.754;2023-07-29T13:23:25;2.27;;;2.17;;
8861;SDS011;4799;50.996;4.754;2023-07-29T13:25:52;2.60;;;2.10;;
8861;SDS011;4799;50.996;4.754;2023-07-29T13:28:17;2.57;;;2.20;;
8861;SDS011;4799;50.996;4.754;2023-07-29T13:30:44;4.53;;;2.10;;
8861;SDS011;4799;50.996;4.754;2023-07-29T13:33:10;2.13;;;1.93;;
8861;SDS011;4799;50.996;4.754;2023-07-29T13:35:36;2.37;;;2.17;;
8861;SDS011;4799;50.996;4.754;2023-07-29T13:38:01;2.40;;;2.20;;
8861;SDS011;4799;50.996;4.754;2023-07-29T13:40:27;2.50;;;2.30;;
8861;SDS011;4799;50.996;4.754;2023-07-29T13:42:53;2.90;;;2.37;;
8861;SDS011;4799;50.996;4.754;2023-07-29T13:45:20;2.60;;;2.37;;
8861;SDS011;4799;50.996;4.754;2023-07-29T13:47:46;2.50;;;2.30;;
8861;SDS011;4799;50.996;4.754;2023-07-29T13:50:11;2.50;;;2.30;;
8861;SDS011;4799;50.996;4.754;2023-07-29T13:52:37;3.77;;;2.60;;
8861;SDS011;4799;50.996;4.754;2023-07-29T13:55:04;2.33;;;2.23;;
8861;SDS011;4799;50.996;4.754;2023-07-29T13:57:30;3.43;;;2.20;;
8861;SDS011;4799;50.996;4.754;2023-07-29T13:59:56;2.53;;;2.33;;
8861;SDS011;4799;50.996;4.754;2023-07-29T14:02:22;2.80;;;2.60;;
8861;SDS011;4799;50.996;4.754;2023-07-29T14:04:48;2.47;;;2.27;;
8861;SDS011;4799;50.996;4.754;2023-07-29T14:07:14;2.60;;;2.40;;
8861;SDS011;4799;50.996;4.754;2023-07-29T14:09:40;2.97;;;2.47;;
8861;SDS011;4799;50.996;4.754;2023-07-29T14:12:08;2.57;;;2.00;;
8861;SDS011;4799;50.996;4.754;2023-07-29T14:14:38;2.50;;;2.30;;
8861;SDS011;4799;50.996;4.754;2023-07-29T14:17:04;1.90;;;1.80;;
8861;SDS011;4799;50.996;4.754;2023-07-29T14:19:31;2.60;;;2.17;;
8861;SDS011;4799;50.996;4.754;2023-07-29T14:21:56;2.07;;;1.90;;
8861;SDS011;4799;50.996;4.754;2023-07-29T14:24:22;2.03;;;1.93;;
8861;SDS011;4799;50.996;4.754;2023-07-29T14:26:48;2.40;;;2.10;;
8861;SDS011;4799;50.996;4.754;2023-07-29T14:29:14;2.03;;;1.90;;
8861;SDS011;4799;50.996;4.754;2023-07-29T14:31:40;2.17;;;1.97;;
8861;SDS011;4799;50.996;4.754;2023-07-29T14:34:05;2.90;;;1.97;;
8861;SDS011;4799;50.996;4.754;2023-07-29T14:36:31;2.20;;;2.00;;
8861;SDS011;4799;50.996;4.754;2023-07-29T14:38:57;2.30;;;2.10;;
8861;SDS011;4799;50.996;4.754;2023-07-29T14:41:22;2.27;;;2.07;;
8861;SDS011;4799;50.996;4.754;2023-07-29T14:43:48;2.10;;;1.90;;
8861;SDS011;4799;50.996;4.754;2023-07-29T14:46:14;1.90;;;1.80;;
8861;SDS011;4799;50.996;4.754;2023-07-29T14:48:39;2.83;;;2.13;;
8861;SDS011;4799;50.996;4.754;2023-07-29T14:51:05;2.43;;;2.23;;
8861;SDS011;4799;50.996;4.754;2023-07-29T14:53:31;1.90;;;1.80;;
8861;SDS011;4799;50.996;4.754;2023-07-29T14:55:56;1.80;;;1.70;;
8861;SDS011;4799;50.996;4.754;2023-07-29T14:58:22;1.70;;;1.60;;
8861;SDS011;4799;50.996;4.754;2023-07-29T15:00:50;2.38;;;1.60;;
8861;SDS011;4799;50.996;4.754;2023-07-29T15:03:16;1.80;;;1.60;;
8861;SDS011;4799;50.996;4.754;2023-07-29T15:05:42;1.63;;;1.45;;
8861;SDS011;4799;50.996;4.754;2023-07-29T15:08:08;1.60;;;1.50;;
8861;SDS011;4799;50.996;4.754;2023-07-29T15:10:34;1.55;;;1.45;;
8861;SDS011;4799;50.996;4.754;2023-07-29T15:13:00;1.58;;;1.48;;
8861;SDS011;4799;50.996;4.754;2023-07-29T15:15:27;1.60;;;1.50;;
8861;SDS011;4799;50.996;4.754;2023-07-29T15:17:52;1.95;;;1.60;;
8861;SDS011;4799;50.996;4.754;2023-07-29T15:20:18;1.58;;;1.48;;
8861;SDS011;4799;50.996;4.754;2023-07-29T15:22:44;1.80;;;1.60;;
8861;SDS011;4799;50.996;4.754;2023-07-29T15:25:10;2.03;;;1.45;;
8861;SDS011;4799;50.996;4.754;2023-07-29T15:27:35;1.63;;;1.40;;
8861;SDS011;4799;50.996;4.754;2023-07-29T15:30:02;1.60;;;1.50;;
8861;SDS011;4799;50.996;4.754;2023-07-29T15:32:28;1.52;;;1.42;;
8861;SDS011;4799;50.996;4.754;2023-07-29T15:34:54;1.35;;;1.25;;